createdAt,value
2019-02-27T00:00:15.645Z,101744.99
2019-02-27T00:02:42.353Z,101747.41
2019-02-27T00:05:09.095Z,101749.95
2019-02-27T00:07:35.817Z,101753.42
2019-02-27T00:10:05.943Z,101756.45
2019-02-27T00:12:29.430Z,101760.75
2019-02-27T00:14:56.154Z,101766.13
2019-02-27T00:17:22.922Z,101752.77
2019-02-27T00:19:49.635Z,101747.34
2019-02-27T00:22:17.714Z,101747.48
2019-02-27T00:24:43.114Z,101741.19
2019-02-27T00:27:09.862Z,101738.66
2019-02-27T00:29:36.594Z,101738.80
2019-02-27T00:32:03.439Z,101735.39
2019-02-27T00:34:32.850Z,101737.85
2019-02-27T00:36:56.922Z,101739.58
2019-02-27T00:39:23.654Z,101734.09
2019-02-27T00:41:50.393Z,101736.02
2019-02-27T00:44:17.122Z,101734.08
2019-02-27T00:46:44.027Z,101740.59
2019-02-27T00:49:10.606Z,101742.56
2019-02-27T00:51:37.359Z,101736.70
2019-02-27T00:54:04.116Z,101733.33
2019-02-27T00:56:30.863Z,101732.27
2019-02-27T00:58:59.878Z,101734.91
2019-02-27T01:01:24.342Z,101731.89
2019-02-27T01:03:51.066Z,101732.33
2019-02-27T01:06:17.826Z,101733.37
2019-02-27T01:08:44.917Z,101736.57
2019-02-27T01:11:12.301Z,101735.36
2019-02-27T01:13:39.038Z,101732.55
2019-02-27T01:16:05.764Z,101732.96
2019-02-27T01:18:32.498Z,101733.44
2019-02-27T01:20:59.210Z,101726.06
2019-02-27T01:23:25.946Z,101720.90
2019-02-27T01:25:56.108Z,101718.89
2019-02-27T01:28:19.401Z,101703.55
2019-02-27T01:30:46.122Z,101701.52
2019-02-27T01:33:12.862Z,101702.47
2019-02-27T01:35:39.602Z,101695.70
2019-02-27T01:38:06.342Z,101691.07
2019-02-27T01:40:33.073Z,101692.55
2019-02-27T01:42:59.810Z,101696.05
2019-02-27T01:45:26.526Z,101695.59
2019-02-27T01:47:53.257Z,101693.02
2019-02-27T01:50:26.969Z,101697.52
2019-02-27T01:52:53.717Z,101689.61
2019-02-27T01:55:22.451Z,101679.78
2019-02-27T01:57:47.189Z,101676.63
2019-02-27T02:00:13.906Z,101674.78
2019-02-27T02:02:40.638Z,101676.41
2019-02-27T02:05:07.359Z,101670.77
2019-02-27T02:07:34.091Z,101667.63
2019-02-27T02:10:00.805Z,101669.27
2019-02-27T02:12:29.880Z,101667.06
2019-02-27T02:15:08.393Z,101664.10
2019-02-27T02:18:18.189Z,101654.58
2019-02-27T02:21:04.539Z,101656.39
2019-02-27T02:23:54.753Z,101651.55
2019-02-27T02:26:53.415Z,101647.73
2019-02-27T02:30:00.469Z,101652.02
2019-02-27T02:32:36.688Z,101644.77
2019-02-27T02:35:19.790Z,101637.44
2019-02-27T02:38:15.225Z,101631.83
2019-02-27T02:41:27.954Z,101632.00
2019-02-27T02:44:22.906Z,101630.20
2019-02-27T02:47:19.529Z,101628.61
2019-02-27T02:50:08.788Z,101631.48
2019-02-27T02:53:09.585Z,101622.95
2019-02-27T02:55:49.321Z,101625.47
2019-02-27T02:58:28.261Z,101624.64
2019-02-27T03:01:02.037Z,101617.00
2019-02-27T03:03:54.174Z,101624.81
2019-02-27T03:06:36.129Z,101624.13
2019-02-27T03:09:13.830Z,101617.98
2019-02-27T03:11:54.006Z,101628.81
2019-02-27T03:14:28.574Z,101623.84
2019-02-27T03:17:17.868Z,101621.84
2019-02-27T03:19:51.343Z,101622.59
2019-02-27T03:22:27.478Z,101620.51
2019-02-27T03:25:22.118Z,101624.30
2019-02-27T03:28:05.870Z,101620.55
2019-02-27T03:31:17.955Z,101618.88
2019-02-27T03:34:12.119Z,101621.48
2019-02-27T03:36:55.121Z,101612.38
2019-02-27T03:39:35.143Z,101610.05
2019-02-27T03:42:30.822Z,101616.72
2019-02-27T03:45:13.212Z,101613.00
2019-02-27T03:48:00.738Z,101607.75
2019-02-27T03:50:59.230Z,101608.59
2019-02-27T03:53:39.071Z,101611.33
2019-02-27T03:56:19.725Z,101606.42
2019-02-27T03:58:52.910Z,101605.95
2019-02-27T04:01:39.951Z,101606.67
2019-02-27T04:04:20.843Z,101600.81
2019-02-27T04:07:18.779Z,101605.70
2019-02-27T04:09:45.559Z,101604.08
2019-02-27T04:12:16.127Z,101605.44
2019-02-27T04:14:41.780Z,101603.76
2019-02-27T04:17:07.542Z,101598.61
2019-02-27T04:19:38.759Z,101595.35
2019-02-27T04:22:01.189Z,101598.53
2019-02-27T04:24:25.986Z,101596.32
2019-02-27T04:26:52.709Z,101602.09
2019-02-27T04:29:19.424Z,101601.30
2019-02-27T04:31:46.160Z,101602.67
2019-02-27T04:34:12.875Z,101593.18
2019-02-27T04:36:39.628Z,101593.99
2019-02-27T04:39:06.367Z,101592.42
2019-02-27T04:41:33.094Z,101602.11
2019-02-27T04:43:59.805Z,101594.37
2019-02-27T04:46:26.515Z,101601.20
2019-02-27T04:48:53.234Z,101604.94
2019-02-27T04:51:19.950Z,101601.42
2019-02-27T04:53:46.702Z,101607.85
2019-02-27T04:56:13.418Z,101611.47
2019-02-27T04:58:42.849Z,101614.38
2019-02-27T05:01:06.857Z,101612.89
2019-02-27T05:03:33.621Z,101609.35
2019-02-27T05:06:00.337Z,101605.95
2019-02-27T05:08:27.735Z,101602.47
2019-02-27T05:10:53.778Z,101596.20
2019-02-27T05:13:20.931Z,101595.30
2019-02-27T05:15:47.229Z,101595.95
2019-02-27T05:18:13.965Z,101597.48
2019-02-27T05:20:44.997Z,101594.17
2019-02-27T05:23:07.554Z,101598.55
2019-02-27T05:25:34.274Z,101597.71
2019-02-27T05:28:01.532Z,101595.41
2019-02-27T05:30:27.714Z,101595.48
2019-02-27T05:32:54.443Z,101593.53
2019-02-27T05:35:23.705Z,101590.66
2019-02-27T05:37:47.918Z,101594.78
2019-02-27T05:40:14.642Z,101600.48
2019-02-27T05:42:41.370Z,101594.47
2019-02-27T05:45:09.706Z,101598.61
2019-02-27T05:47:36.434Z,101601.25
2019-02-27T05:50:04.210Z,101592.72
2019-02-27T05:52:30.938Z,101600.94
2019-02-27T05:54:57.730Z,101588.86
2019-02-27T05:57:24.454Z,101589.67
2019-02-27T05:59:51.178Z,101582.80
2019-02-27T06:02:17.921Z,101581.27
2019-02-27T06:04:44.661Z,101580.77
2019-02-27T06:07:11.389Z,101583.83
2019-02-27T06:09:38.116Z,101578.84
2019-02-27T06:12:06.855Z,101574.75
2019-02-27T06:14:31.582Z,101574.56
2019-02-27T06:16:58.305Z,101580.48
2019-02-27T06:19:25.045Z,101582.31
2019-02-27T06:21:56.099Z,101583.13
2019-02-27T06:24:18.509Z,101589.11
2019-02-27T06:26:45.225Z,101586.02
2019-02-27T06:29:11.949Z,101594.65
2019-02-27T06:31:39.540Z,101592.06
2019-02-27T06:34:05.377Z,101587.69
2019-02-27T06:36:32.113Z,101578.25
2019-02-27T06:39:00.341Z,101581.31
2019-02-27T06:41:25.558Z,101580.18
2019-02-27T06:43:52.278Z,101584.35
2019-02-27T06:46:20.077Z,101587.56
2019-02-27T06:48:45.725Z,101589.39
2019-02-27T06:51:12.441Z,101586.30
2019-02-27T06:53:39.186Z,101581.79
2019-02-27T06:56:05.900Z,101577.30
2019-02-27T06:58:32.622Z,101577.11
2019-02-27T07:00:59.335Z,101571.83
2019-02-27T07:03:29.283Z,101564.69
2019-02-27T07:05:52.851Z,101569.70
2019-02-27T07:08:19.629Z,101572.36
2019-02-27T07:10:46.354Z,101572.67
2019-02-27T07:13:13.066Z,101573.16
2019-02-27T07:15:39.794Z,101567.75
2019-02-27T07:18:06.747Z,101570.82
2019-02-27T07:20:33.432Z,101572.89
2019-02-27T07:23:00.141Z,101567.84
2019-02-27T07:25:27.010Z,101575.34
2019-02-27T07:27:53.726Z,101570.90
2019-02-27T07:30:20.470Z,101572.47
2019-02-27T07:32:47.185Z,101576.34
2019-02-27T07:35:13.917Z,101575.30
2019-02-27T07:37:40.638Z,101579.89
2019-02-27T07:40:09.373Z,101585.38
2019-02-27T07:42:36.359Z,101588.23
2019-02-27T07:45:02.678Z,101591.25
2019-02-27T07:47:29.397Z,101588.23
2019-02-27T07:49:56.138Z,101589.48
2019-02-27T07:52:22.854Z,101591.56
2019-02-27T07:54:49.609Z,101586.48
2019-02-27T07:57:16.329Z,101591.83
2019-02-27T07:59:43.065Z,101590.40
2019-02-27T08:02:09.793Z,101588.33
2019-02-27T08:04:36.530Z,101591.00
2019-02-27T08:07:03.258Z,101591.00
2019-02-27T08:09:30.732Z,101597.51
2019-02-27T08:11:56.804Z,101594.70
2019-02-27T08:14:23.542Z,101587.59
2019-02-27T08:16:50.287Z,101582.73
2019-02-27T08:19:17.060Z,101580.75
2019-02-27T08:21:43.780Z,101581.52
2019-02-27T08:24:11.528Z,101574.11
2019-02-27T08:26:38.511Z,101578.23
2019-02-27T08:29:05.246Z,101573.20
2019-02-27T08:31:32.187Z,101574.87
2019-02-27T08:33:58.897Z,101580.50
2019-02-27T08:36:25.626Z,101567.00
2019-02-27T08:38:52.344Z,101571.66
2019-02-27T08:41:19.254Z,101559.26
2019-02-27T08:43:45.975Z,101557.58
2019-02-27T08:46:12.722Z,101550.05
2019-02-27T08:48:39.542Z,101544.13
2019-02-27T08:53:34.480Z,101555.75
2019-02-27T08:55:59.777Z,101548.49
2019-02-27T08:58:28.964Z,101549.20
2019-02-27T09:00:53.254Z,101545.52
2019-02-27T09:03:20.784Z,101548.09
2019-02-27T09:05:46.746Z,101546.23
2019-02-27T09:08:13.470Z,101547.67
2019-02-27T09:10:40.320Z,101541.75
2019-02-27T09:13:07.051Z,101532.05
2019-02-27T09:15:33.906Z,101532.45
2019-02-27T09:18:01.918Z,101531.27
2019-02-27T09:20:27.478Z,101530.07
2019-02-27T09:22:55.824Z,101528.30
2019-02-27T09:25:23.894Z,101527.98
2019-02-27T09:27:47.713Z,101515.31
2019-02-27T09:30:14.651Z,101511.59
2019-02-27T09:32:43.270Z,101516.32
2019-02-27T09:35:08.164Z,101512.13
2019-02-27T09:37:34.866Z,101511.13
2019-02-27T09:40:04.826Z,101509.62
2019-02-27T09:42:28.346Z,101503.28
2019-02-27T09:44:55.202Z,101492.39
2019-02-27T09:47:23.207Z,101492.16
2019-02-27T09:49:48.742Z,101483.55
2019-02-27T09:52:15.481Z,101476.45
2019-02-27T09:54:46.792Z,101472.77
2019-02-27T09:57:08.929Z,101465.56
2019-02-27T09:59:35.737Z,101456.95
2019-02-27T10:02:02.477Z,101458.38
2019-02-27T10:04:29.206Z,101455.45
2019-02-27T10:06:55.934Z,101458.81
2019-02-27T10:09:22.653Z,101458.55
2019-02-27T10:11:52.200Z,101459.73
2019-02-27T10:14:16.403Z,101449.41
2019-02-27T10:16:42.938Z,101452.94
2019-02-27T10:19:09.962Z,101444.05
2019-02-27T10:21:36.719Z,101444.17
2019-02-27T10:24:04.791Z,101440.27
2019-02-27T10:26:30.284Z,101430.78
2019-02-27T10:28:57.114Z,101423.86
2019-02-27T10:31:25.979Z,101420.34
2019-02-27T10:33:50.557Z,101418.00
2019-02-27T10:36:17.285Z,101414.77
2019-02-27T10:38:45.446Z,101411.28
2019-02-27T10:41:10.818Z,101408.42
2019-02-27T10:43:37.677Z,101403.78
2019-02-27T10:46:04.422Z,101398.52
2019-02-27T10:48:31.145Z,101403.08
2019-02-27T10:50:57.889Z,101397.96
2019-02-27T10:53:27.135Z,101397.24
2019-02-27T10:55:51.379Z,101393.17
2019-02-27T10:58:18.109Z,101394.84
2019-02-27T11:00:46.357Z,101373.86
2019-02-27T11:03:12.350Z,101379.55
2019-02-27T11:05:39.185Z,101373.93
2019-02-27T11:08:05.910Z,101362.02
2019-02-27T11:10:32.641Z,101354.41
2019-02-27T11:12:59.366Z,101349.37
2019-02-27T11:15:26.090Z,101350.53
2019-02-27T11:17:53.494Z,101342.80
2019-02-27T11:20:21.007Z,101337.70
2019-02-27T11:22:46.313Z,101332.48
2019-02-27T11:25:14.655Z,101329.55
2019-02-27T11:27:41.390Z,101318.36
2019-02-27T11:30:13.165Z,101316.38
2019-02-27T11:32:39.902Z,101316.29
2019-02-27T11:35:06.618Z,101312.63
2019-02-27T11:37:33.356Z,101306.11
2019-02-27T11:40:00.226Z,101301.30
2019-02-27T11:42:29.048Z,101294.55
2019-02-27T11:44:53.605Z,101292.55
2019-02-27T11:47:20.341Z,101291.36
2019-02-27T11:49:47.062Z,101286.15
2019-02-27T11:52:13.802Z,101277.06
2019-02-27T11:54:43.124Z,101278.48
2019-02-27T11:57:07.282Z,101279.07
2019-02-27T11:59:34.074Z,101278.08
2019-02-27T12:02:00.811Z,101272.02
2019-02-27T12:04:27.538Z,101270.87
2019-02-27T12:06:54.277Z,101262.62
2019-02-27T12:09:20.998Z,101262.67
2019-02-27T12:11:48.824Z,101259.80
2019-02-27T12:14:14.517Z,101257.34
2019-02-27T12:16:41.258Z,101253.58
2019-02-27T12:19:08.752Z,101250.68
2019-02-27T12:21:34.714Z,101243.91
2019-02-27T12:24:01.462Z,101234.16
2019-02-27T12:26:28.206Z,101234.92
2019-02-27T12:28:54.931Z,101219.50
2019-02-27T12:31:21.793Z,101216.89
2019-02-27T12:33:48.648Z,101223.50
2019-02-27T12:36:16.103Z,101216.19
2019-02-27T12:38:42.560Z,101213.77
2019-02-27T12:41:08.934Z,101197.83
2019-02-27T12:43:35.689Z,101193.42
2019-02-27T12:46:02.448Z,101190.80
2019-02-27T12:48:29.189Z,101180.94
2019-02-27T12:50:55.910Z,101182.59
2019-02-27T12:53:22.658Z,101172.39
2019-02-27T12:55:49.377Z,101168.30
2019-02-27T12:58:16.118Z,101170.41
2019-02-27T13:00:43.148Z,101163.34
2019-02-27T13:03:09.600Z,101157.90
2019-02-27T13:05:36.323Z,101153.13
2019-02-27T13:08:03.074Z,101151.00
2019-02-27T13:10:34.046Z,101143.25
2019-02-27T13:12:56.617Z,101137.48
2019-02-27T13:15:23.459Z,101125.42
2019-02-27T13:17:50.206Z,101120.55
2019-02-27T13:20:18.786Z,101118.73
2019-02-27T13:22:45.520Z,101110.84
2019-02-27T13:25:12.274Z,101102.58
2019-02-27T13:27:40.385Z,101100.41
2019-02-27T13:30:09.169Z,101089.09
2019-02-27T13:32:33.578Z,101091.64
2019-02-27T13:35:00.330Z,101085.35
2019-02-27T13:37:27.158Z,101070.02
2019-02-27T13:39:53.908Z,101067.17
2019-02-27T13:42:20.642Z,101057.60
2019-02-27T13:44:47.407Z,101049.06
2019-02-27T13:47:14.134Z,101051.02
2019-02-27T13:49:40.871Z,101043.80
2019-02-27T13:52:12.138Z,101035.67
2019-02-27T13:54:37.357Z,101034.25
2019-02-27T13:57:01.099Z,101032.25
2019-02-27T13:59:27.830Z,101028.87
2019-02-27T14:01:54.582Z,101024.50
2019-02-27T14:04:22.625Z,101024.00
2019-02-27T14:06:48.175Z,101015.01
2019-02-27T14:09:14.906Z,101006.37
2019-02-27T14:11:41.658Z,101014.22
2019-02-27T14:14:08.402Z,101009.96
2019-02-27T14:16:35.605Z,101005.01
2019-02-27T14:19:02.366Z,101005.81
2019-02-27T14:21:29.115Z,101003.55
2019-02-27T14:23:55.850Z,101002.31
2019-02-27T14:26:22.611Z,100997.16
2019-02-27T14:28:49.434Z,100988.25
2019-02-27T14:31:16.281Z,100984.53
2019-02-27T14:33:43.011Z,101005.80
2019-02-27T14:36:09.886Z,101010.97
2019-02-27T14:38:36.614Z,101003.39
2019-02-27T14:41:03.374Z,101005.30
2019-02-27T14:43:30.110Z,101010.50
2019-02-27T14:45:56.869Z,100999.77
2019-02-27T14:48:23.622Z,100979.11
2019-02-27T14:50:50.402Z,100969.13
2019-02-27T14:53:19.708Z,100961.40
2019-02-27T14:55:43.982Z,100953.48
2019-02-27T14:58:10.714Z,100949.30
2019-02-27T15:00:40.900Z,100945.83
2019-02-27T15:03:04.341Z,100954.73
2019-02-27T15:05:31.230Z,100954.23
2019-02-27T15:07:57.975Z,100950.62
2019-02-27T15:10:24.726Z,100946.59
2019-02-27T15:12:55.046Z,100943.45
2019-02-27T15:15:20.130Z,100935.05
2019-02-27T15:17:46.867Z,100927.59
2019-02-27T15:20:14.232Z,100915.12
2019-02-27T15:22:40.966Z,100917.22
2019-02-27T15:25:09.434Z,100910.33
2019-02-27T15:27:36.196Z,100910.64
2019-02-27T15:30:02.981Z,100911.95
2019-02-27T15:32:30.297Z,100911.37
2019-02-27T15:34:56.526Z,100902.53
2019-02-27T15:37:23.282Z,100889.64
2019-02-27T15:39:51.938Z,100891.38
2019-02-27T15:42:16.778Z,100887.59
2019-02-27T15:44:43.510Z,100879.45
2019-02-27T15:47:10.333Z,100871.42
2019-02-27T15:49:37.070Z,100878.89
2019-02-27T15:52:06.972Z,100878.19
2019-02-27T15:54:30.566Z,100876.58
2019-02-27T15:56:57.314Z,100875.47
2019-02-27T15:59:24.134Z,100873.88
2019-02-27T16:01:50.985Z,100876.70
2019-02-27T16:04:21.062Z,100878.56
2019-02-27T16:06:44.569Z,100879.98
2019-02-27T16:09:11.307Z,100885.88
2019-02-27T16:11:38.061Z,100885.66
2019-02-27T16:14:09.138Z,100889.66
2019-02-27T16:16:31.651Z,100901.67
2019-02-27T16:18:58.374Z,100916.45
2019-02-27T16:21:25.114Z,100915.24
2019-02-27T16:23:51.841Z,100907.38
2019-02-27T16:26:18.593Z,100894.30
2019-02-27T16:28:46.106Z,100891.37
2019-02-27T16:31:12.175Z,100889.73
2019-02-27T16:33:38.902Z,100884.13
2019-02-27T16:36:05.647Z,100887.48
2019-02-27T16:38:32.594Z,100888.27
2019-02-27T16:40:59.106Z,100890.27
2019-02-27T16:43:25.880Z,100895.51
2019-02-27T16:45:52.614Z,100888.48
2019-02-27T16:48:19.395Z,100884.08
2019-02-27T16:50:46.125Z,100883.72
2019-02-27T16:53:15.679Z,100885.42
2019-02-27T16:55:39.692Z,100876.22
2019-02-27T16:58:06.338Z,100873.83
2019-02-27T17:00:33.170Z,100875.08
2019-02-27T17:02:59.897Z,100880.27
2019-02-27T17:05:26.650Z,100887.81
2019-02-27T17:07:53.505Z,100892.62
2019-02-27T17:10:22.621Z,100896.17
2019-02-27T17:12:49.357Z,100903.26
2019-02-27T17:15:16.089Z,100900.11
2019-02-27T17:17:42.826Z,100891.13
2019-02-27T17:20:12.837Z,100885.13
2019-02-27T17:22:38.556Z,100884.00
2019-02-27T17:25:06.242Z,100882.22
2019-02-27T17:27:32.995Z,100891.59
2019-02-27T17:30:00.745Z,100896.45
2019-02-27T17:32:27.466Z,100900.01
2019-02-27T17:34:53.178Z,100903.36
2019-02-27T17:37:19.950Z,100907.87
2019-02-27T17:39:46.672Z,100904.91
2019-02-27T17:42:18.313Z,100906.39
2019-02-27T17:44:40.422Z,100911.15
2019-02-27T17:47:08.240Z,100908.44
2019-02-27T17:49:33.893Z,100902.52
2019-02-27T17:52:00.743Z,100895.31
2019-02-27T17:54:31.370Z,100894.86
2019-02-27T17:56:54.209Z,100879.97
2019-02-27T17:59:20.921Z,100879.64
2019-02-27T18:01:47.645Z,100876.40
2019-02-27T18:04:15.106Z,100875.84
2019-02-27T18:06:41.112Z,100872.99
2019-02-27T18:09:07.924Z,100871.77
2019-02-27T18:11:34.642Z,100878.63
2019-02-27T18:14:01.373Z,100882.67
2019-02-27T18:16:28.101Z,100885.02
2019-02-27T18:18:54.858Z,100888.53
2019-02-27T18:21:21.579Z,100889.79
2019-02-27T18:23:48.334Z,100891.52
2019-02-27T18:26:15.804Z,100891.04
2019-02-27T18:28:41.805Z,100891.06
2019-02-27T18:31:08.513Z,100891.59
2019-02-27T18:33:35.268Z,100894.51
2019-02-27T18:36:04.868Z,100891.91
2019-02-27T18:38:28.726Z,100895.62
2019-02-27T18:40:55.445Z,100884.28
2019-02-27T18:43:22.200Z,100881.31
2019-02-27T18:45:50.861Z,100882.78
2019-02-27T18:48:15.762Z,100881.61
2019-02-27T18:50:42.542Z,100885.39
2019-02-27T18:53:12.949Z,100887.19
2019-02-27T18:55:36.073Z,100887.02
2019-02-27T18:58:02.957Z,100879.72
2019-02-27T19:00:29.695Z,100884.50
2019-02-27T19:02:56.624Z,100882.73
2019-02-27T19:05:23.346Z,100874.96
2019-02-27T19:07:53.657Z,100878.63
2019-02-27T19:10:16.851Z,100872.36
2019-02-27T19:12:43.570Z,100866.83
2019-02-27T19:15:12.118Z,100874.95
2019-02-27T19:17:38.694Z,100870.58
2019-02-27T19:20:06.939Z,100873.20
2019-02-27T19:22:33.673Z,100868.34
2019-02-27T19:25:00.839Z,100866.05
2019-02-27T19:27:27.133Z,100865.30
2019-02-27T19:29:53.841Z,100858.88
2019-02-27T19:32:23.192Z,100857.37
2019-02-27T19:34:48.154Z,100852.73
2019-02-27T19:37:14.026Z,100846.81
2019-02-27T19:39:40.742Z,100844.44
2019-02-27T19:42:10.276Z,100845.39
2019-02-27T19:44:34.422Z,100841.98
2019-02-27T19:47:01.126Z,100835.95
2019-02-27T19:49:27.838Z,100832.81
2019-02-27T19:51:55.448Z,100829.23
2019-02-27T19:54:21.329Z,100831.25
2019-02-27T19:56:48.058Z,100830.09
2019-02-27T19:59:14.781Z,100825.80
2019-02-27T20:01:46.289Z,100829.58
2019-02-27T20:04:09.655Z,100825.77
2019-02-27T20:06:34.997Z,100834.44
2019-02-27T20:09:01.708Z,100834.81
2019-02-27T20:11:28.432Z,100832.12
2019-02-27T20:13:55.166Z,100829.89
2019-02-27T20:16:21.970Z,100836.72
2019-02-27T20:18:54.805Z,100835.31
2019-02-27T20:21:15.441Z,100836.37
2019-02-27T20:23:42.166Z,100833.42
2019-02-27T20:26:13.996Z,100834.73
2019-02-27T20:28:35.618Z,100833.55
2019-02-27T20:31:02.325Z,100822.56
2019-02-27T20:33:29.084Z,100831.55
2019-02-27T20:35:56.704Z,100826.70
2019-02-27T20:38:22.555Z,100830.01
2019-02-27T20:40:49.279Z,100829.07
2019-02-27T20:43:16.017Z,100828.45
2019-02-27T20:45:43.641Z,100821.73
2019-02-27T20:48:09.582Z,100824.51
2019-02-27T20:50:38.698Z,100821.69
2019-02-27T20:53:05.798Z,100819.33
2019-02-27T20:55:32.523Z,100818.95
2019-02-27T20:57:59.257Z,100815.14
2019-02-27T21:00:25.977Z,100812.39
2019-02-27T21:02:53.491Z,100806.15
2019-02-27T21:05:19.433Z,100809.21
2019-02-27T21:07:46.170Z,100808.90
2019-02-27T21:10:19.993Z,100791.97
2019-02-27T21:12:51.070Z,100793.10
2019-02-27T21:15:09.086Z,100790.28
2019-02-27T21:17:35.821Z,100791.86
2019-02-27T21:20:02.609Z,100787.36
2019-02-27T21:22:29.342Z,100779.73
2019-02-27T21:24:56.085Z,100778.77
2019-02-27T21:27:22.875Z,100780.26
2019-02-27T21:29:49.618Z,100781.33
2019-02-27T21:32:16.337Z,100779.63
2019-02-27T21:34:43.166Z,100778.67
2019-02-27T21:37:10.066Z,100771.92
2019-02-27T21:39:36.617Z,100772.27
2019-02-27T21:42:03.366Z,100780.45
2019-02-27T21:44:30.125Z,100778.98
2019-02-27T21:46:56.813Z,100774.22
2019-02-27T21:49:23.560Z,100776.64
2019-02-27T21:51:50.358Z,100779.91
2019-02-27T21:54:18.976Z,100784.25
2019-02-27T21:56:45.378Z,100780.37
2019-02-27T21:59:12.166Z,100778.02
2019-02-27T22:01:38.898Z,100771.55
2019-02-27T22:04:05.642Z,100772.16
2019-02-27T22:06:32.357Z,100762.09
2019-02-27T22:08:59.093Z,100766.39
2019-02-27T22:11:27.106Z,100757.99
2019-02-27T22:13:52.689Z,100765.86
2019-02-27T22:16:19.416Z,100764.16
2019-02-27T22:18:47.003Z,100753.88
2019-02-27T22:21:14.248Z,100758.07
2019-02-27T22:23:39.643Z,100757.09
2019-02-27T22:26:06.369Z,100754.12
2019-02-27T22:28:33.134Z,100753.88
2019-02-27T22:30:59.853Z,100752.51
2019-02-27T22:33:26.610Z,100748.19
2019-02-27T22:35:53.330Z,100742.66
2019-02-27T22:38:20.082Z,100742.80
2019-02-27T22:40:46.803Z,100741.23
2019-02-27T22:43:13.550Z,100744.03
2019-02-27T22:45:43.846Z,100747.11
2019-02-27T22:48:07.005Z,100741.53
2019-02-27T22:50:33.773Z,100750.19
2019-02-27T22:53:00.492Z,100748.68
2019-02-27T22:55:27.241Z,100748.02
2019-02-27T22:57:54.775Z,100751.00
2019-02-27T23:00:37.698Z,100748.80
2019-02-27T23:03:04.428Z,100748.54
2019-02-27T23:05:31.158Z,100750.69
2019-02-27T23:07:57.890Z,100746.64
2019-02-27T23:10:24.637Z,100743.62
2019-02-27T23:12:51.351Z,100740.93
2019-02-27T23:15:18.091Z,100738.95
2019-02-27T23:17:44.813Z,100738.30
2019-02-27T23:20:11.546Z,100737.94
2019-02-27T23:22:38.261Z,100736.67
2019-02-27T23:25:05.026Z,100737.85
2019-02-27T23:27:31.758Z,100732.88
2019-02-27T23:29:58.494Z,100730.52
2019-02-27T23:32:28.640Z,100728.02
2019-02-27T23:34:53.133Z,100728.44
2019-02-27T23:37:19.853Z,100720.69
2019-02-27T23:39:46.605Z,100722.23
2019-02-27T23:42:13.338Z,100722.44
2019-02-27T23:44:40.078Z,100717.98
2019-02-27T23:47:06.802Z,100721.35
2019-02-27T23:49:33.585Z,100722.38
2019-02-27T23:52:00.350Z,100726.61
2019-02-27T23:54:27.590Z,100716.59
2019-02-27T23:56:54.342Z,100715.08
2019-02-27T23:59:21.082Z,100717.06
